sensor_id;sensor_type;location;lat;lon;timestamp;temperature;humidity
10312;DHT22;5201;48.776;9.128;2024-03-02T00:00:14;8.50;99.90
10312;DHT22;5201;48.776;9.128;2024-03-02T00:02:47;8.40;99.90
10312;DHT22;5201;48.776;9.128;2024-03-02T00:05:18;8.30;99.90
10312;DHT22;5201;48.776;9.128;2024-03-02T00:07:55;8.20;99.90
10312;DHT22;5201;48.776;9.128;2024-03-02T00:10:24;8.30;99.90
10312;DHT22;5201;48.776;9.128;2024-03-02T00:12:54;8.30;99.90
10312;DHT22;5201;48.776;9.128;2024-03-02T00:17:55;8.30;99.90
10312;DHT22;5201;48.776;9.128;2024-03-02T00:20:25;8.40;99.90
10312;DHT22;5201;48.776;9.128;2024-03-02T00:23:05;8.50;99.90
10312;DHT22;5201;48.776;9.128;2024-03-02T00:25:50;8.40;99.90
10312;DHT22;5201;48.776;9.128;2024-03-02T00:28:34;8.40;99.90
10312;DHT22;5201;48.776;9.128;2024-03-02T00:31:09;8.30;99.90
10312;DHT22;5201;48.776;9.128;2024-03-02T00:33:47;8.20;99.90
10312;DHT22;5201;48.776;9.128;2024-03-02T00:36:24;8.20;99.90
10312;DHT22;5201;48.776;9.128;2024-03-02T00:38:52;7.90;99.90
10312;DHT22;5201;48.776;9.128;2024-03-02T00:41:30;7.80;99.90
10312;DHT22;5201;48.776;9.128;2024-03-02T00:44:02;7.80;99.90
10312;DHT22;5201;48.776;9.128;2024-03-02T00:46:36;7.80;99.90
10312;DHT22;5201;48.776;9.128;2024-03-02T00:49:04;7.70;99.90
10312;DHT22;5201;48.776;9.128;2024-03-02T00:51:31;7.70;99.90
10312;DHT22;5201;48.776;9.128;2024-03-02T00:54:03;7.70;99.90
10312;DHT22;5201;48.776;9.128;2024-03-02T00:56:30;7.80;99.90
10312;DHT22;5201;48.776;9.128;2024-03-02T00:58:55;7.80;99.90
10312;DHT22;5201;48.776;9.128;2024-03-02T01:01:21;8.00;99.90
10312;DHT22;5201;48.776;9.128;2024-03-02T01:03:47;7.90;99.90
10312;DHT22;5201;48.776;9.128;2024-03-02T01:06:13;8.00;99.90
10312;DHT22;5201;48.776;9.128;2024-03-02T01:08:38;7.90;99.90
10312;DHT22;5201;48.776;9.128;2024-03-02T01:11:04;7.90;99.90
10312;DHT22;5201;48.776;9.128;2024-03-02T01:13:30;8.00;99.90
10312;DHT22;5201;48.776;9.128;2024-03-02T01:15:57;8.20;99.90
10312;DHT22;5201;48.776;9.128;2024-03-02T01:18:23;8.20;99.90
10312;DHT22;5201;48.776;9.128;2024-03-02T01:20:49;8.10;99.90
10312;DHT22;5201;48.776;9.128;2024-03-02T01:23:18;8.10;99.90
10312;DHT22;5201;48.776;9.128;2024-03-02T01:25:45;8.10;99.90
10312;DHT22;5201;48.776;9.128;2024-03-02T01:28:11;8.50;99.90
10312;DHT22;5201;48.776;9.128;2024-03-02T01:30:37;8.50;99.90
10312;DHT22;5201;48.776;9.128;2024-03-02T01:33:02;8.30;99.90
10312;DHT22;5201;48.776;9.128;2024-03-02T01:35:34;8.30;99.90
10312;DHT22;5201;48.776;9.128;2024-03-02T01:38:03;8.40;99.90
10312;DHT22;5201;48.776;9.128;2024-03-02T01:40:29;8.40;99.90
10312;DHT22;5201;48.776;9.128;2024-03-02T01:42:55;8.40;99.90
10312;DHT22;5201;48.776;9.128;2024-03-02T01:45:23;8.50;99.90
10312;DHT22;5201;48.776;9.128;2024-03-02T01:47:49;8.50;99.90
10312;DHT22;5201;48.776;9.128;2024-03-02T01:50:15;8.40;99.90
10312;DHT22;5201;48.776;9.128;2024-03-02T01:52:41;8.40;99.90
10312;DHT22;5201;48.776;9.128;2024-03-02T01:55:07;8.30;99.90
10312;DHT22;5201;48.776;9.128;2024-03-02T01:57:34;8.40;99.90
10312;DHT22;5201;48.776;9.128;2024-03-02T02:00:00;8.30;99.90
10312;DHT22;5201;48.776;9.128;2024-03-02T02:02:26;8.10;99.90
10312;DHT22;5201;48.776;9.128;2024-03-02T02:04:51;8.10;99.90
10312;DHT22;5201;48.776;9.128;2024-03-02T02:07:17;8.10;99.90
10312;DHT22;5201;48.776;9.128;2024-03-02T02:09:43;8.00;99.90
10312;DHT22;5201;48.776;9.128;2024-03-02T02:12:12;7.20;99.90
10312;DHT22;5201;48.776;9.128;2024-03-02T02:14:37;7.70;99.90
10312;DHT22;5201;48.776;9.128;2024-03-02T02:17:05;7.40;99.90
10312;DHT22;5201;48.776;9.128;2024-03-02T02:19:31;7.20;99.90
10312;DHT22;5201;48.776;9.128;2024-03-02T02:21:56;7.00;99.90
10312;DHT22;5201;48.776;9.128;2024-03-02T02:24:22;7.90;99.90
10312;DHT22;5201;48.776;9.128;2024-03-02T02:26:47;7.00;99.90
10312;DHT22;5201;48.776;9.128;2024-03-02T02:29:13;7.10;99.90
10312;DHT22;5201;48.776;9.128;2024-03-02T02:31:42;7.20;99.90
10312;DHT22;5201;48.776;9.128;2024-03-02T02:34:08;7.20;99.90
10312;DHT22;5201;48.776;9.128;2024-03-02T02:36:37;7.30;99.90
10312;DHT22;5201;48.776;9.128;2024-03-02T02:39:04;7.30;99.90
10312;DHT22;5201;48.776;9.128;2024-03-02T02:41:30;7.30;99.90
10312;DHT22;5201;48.776;9.128;2024-03-02T02:43:56;7.30;99.90
10312;DHT22;5201;48.776;9.128;2024-03-02T02:46:22;7.20;99.90
10312;DHT22;5201;48.776;9.128;2024-03-02T02:48:47;7.10;99.90
10312;DHT22;5201;48.776;9.128;2024-03-02T02:51:13;7.10;99.90
10312;DHT22;5201;48.776;9.128;2024-03-02T02:53:39;7.50;99.90
10312;DHT22;5201;48.776;9.128;2024-03-02T02:56:07;7.10;99.90
10312;DHT22;5201;48.776;9.128;2024-03-02T02:58:32;7.30;99.90
10312;DHT22;5201;48.776;9.128;2024-03-02T03:00:58;7.30;99.90
10312;DHT22;5201;48.776;9.128;2024-03-02T03:03:24;7.50;99.90
10312;DHT22;5201;48.776;9.128;2024-03-02T03:05:49;7.50;99.90
10312;DHT22;5201;48.776;9.128;2024-03-02T03:08:15;7.30;99.90
10312;DHT22;5201;48.776;9.128;2024-03-02T03:10:43;7.40;99.90
10312;DHT22;5201;48.776;9.128;2024-03-02T03:13:09;6.90;99.90
10312;DHT22;5201;48.776;9.128;2024-03-02T03:15:35;6.90;99.90
10312;DHT22;5201;48.776;9.128;2024-03-02T03:18:04;6.90;99.90
10312;DHT22;5201;48.776;9.128;2024-03-02T03:20:30;6.90;99.90
10312;DHT22;5201;48.776;9.128;2024-03-02T03:22:56;6.90;99.90
10312;DHT22;5201;48.776;9.128;2024-03-02T03:25:22;6.90;99.90
10312;DHT22;5201;48.776;9.128;2024-03-02T03:27:47;6.80;99.90
10312;DHT22;5201;48.776;9.128;2024-03-02T03:30:13;6.80;99.90
10312;DHT22;5201;48.776;9.128;2024-03-02T03:32:39;6.80;99.90
10312;DHT22;5201;48.776;9.128;2024-03-02T03:35:05;6.90;99.90
10312;DHT22;5201;48.776;9.128;2024-03-02T03:37:31;6.90;99.90
10312;DHT22;5201;48.776;9.128;2024-03-02T03:40:04;6.90;99.90
10312;DHT22;5201;48.776;9.128;2024-03-02T03:42:38;7.00;99.90
10312;DHT22;5201;48.776;9.128;2024-03-02T03:45:05;7.00;99.90
10312;DHT22;5201;48.776;9.128;2024-03-02T03:47:33;7.00;99.90
10312;DHT22;5201;48.776;9.128;2024-03-02T03:49:59;6.90;99.90
10312;DHT22;5201;48.776;9.128;2024-03-02T03:52:24;7.00;99.90
10312;DHT22;5201;48.776;9.128;2024-03-02T03:54:50;6.90;99.90
10312;DHT22;5201;48.776;9.128;2024-03-02T03:57:16;6.90;99.90
10312;DHT22;5201;48.776;9.128;2024-03-02T03:59:42;6.80;99.90
10312;DHT22;5201;48.776;9.128;2024-03-02T04:02:08;6.90;99.90
10312;DHT22;5201;48.776;9.128;2024-03-02T04:04:34;6.80;99.90
10312;DHT22;5201;48.776;9.128;2024-03-02T04:07:00;6.70;99.90
10312;DHT22;5201;48.776;9.128;2024-03-02T04:09:25;6.70;99.90
10312;DHT22;5201;48.776;9.128;2024-03-02T04:11:51;6.60;99.90
10312;DHT22;5201;48.776;9.128;2024-03-02T04:14:17;6.90;99.90
10312;DHT22;5201;48.776;9.128;2024-03-02T04:16:42;7.00;99.90
10312;DHT22;5201;48.776;9.128;2024-03-02T04:19:08;6.90;99.90
10312;DHT22;5201;48.776;9.128;2024-03-02T04:21:33;6.80;99.90
10312;DHT22;5201;48.776;9.128;2024-03-02T04:23:59;6.80;99.90
10312;DHT22;5201;48.776;9.128;2024-03-02T04:26:25;6.70;99.90
10312;DHT22;5201;48.776;9.128;2024-03-02T04:28:54;6.80;99.90
10312;DHT22;5201;48.776;9.128;2024-03-02T04:31:20;6.90;99.90
10312;DHT22;5201;48.776;9.128;2024-03-02T04:33:45;7.00;99.90
10312;DHT22;5201;48.776;9.128;2024-03-02T04:36:11;7.10;99.90
10312;DHT22;5201;48.776;9.128;2024-03-02T04:38:38;7.20;99.90
10312;DHT22;5201;48.776;9.128;2024-03-02T04:41:04;7.20;99.90
10312;DHT22;5201;48.776;9.128;2024-03-02T04:43:32;7.10;99.90
10312;DHT22;5201;48.776;9.128;2024-03-02T04:45:58;7.00;99.90
10312;DHT22;5201;48.776;9.128;2024-03-02T04:48:24;7.10;99.90
10312;DHT22;5201;48.776;9.128;2024-03-02T04:50:50;7.10;99.90
10312;DHT22;5201;48.776;9.128;2024-03-02T04:53:15;7.10;99.90
10312;DHT22;5201;48.776;9.128;2024-03-02T04:55:41;7.10;99.90
10312;DHT22;5201;48.776;9.128;2024-03-02T04:58:06;7.20;99.90
10312;DHT22;5201;48.776;9.128;2024-03-02T05:00:32;7.20;99.90
10312;DHT22;5201;48.776;9.128;2024-03-02T05:02:58;7.10;99.90
10312;DHT22;5201;48.776;9.128;2024-03-02T05:05:24;7.20;99.90
10312;DHT22;5201;48.776;9.128;2024-03-02T05:07:49;7.30;99.90
10312;DHT22;5201;48.776;9.128;2024-03-02T05:10:15;7.30;99.90
10312;DHT22;5201;48.776;9.128;2024-03-02T05:12:41;7.30;99.90
10312;DHT22;5201;48.776;9.128;2024-03-02T05:15:15;7.10;99.90
10312;DHT22;5201;48.776;9.128;2024-03-02T05:17:41;6.90;99.90
10312;DHT22;5201;48.776;9.128;2024-03-02T05:20:10;7.50;99.90
10312;DHT22;5201;48.776;9.128;2024-03-02T05:22:37;6.50;99.90
10312;DHT22;5201;48.776;9.128;2024-03-02T05:25:06;6.30;99.90
10312;DHT22;5201;48.776;9.128;2024-03-02T05:27:32;6.30;99.90
10312;DHT22;5201;48.776;9.128;2024-03-02T05:29:58;6.30;99.90
10312;DHT22;5201;48.776;9.128;2024-03-02T05:32:24;6.20;99.90
10312;DHT22;5201;48.776;9.128;2024-03-02T05:34:50;6.20;99.90
10312;DHT22;5201;48.776;9.128;2024-03-02T05:37:16;6.20;99.90
10312;DHT22;5201;48.776;9.128;2024-03-02T05:39:42;6.20;99.90
10312;DHT22;5201;48.776;9.128;2024-03-02T05:42:08;6.30;99.90
10312;DHT22;5201;48.776;9.128;2024-03-02T05:44:35;6.30;99.90
10312;DHT22;5201;48.776;9.128;2024-03-02T05:47:00;6.40;99.90
10312;DHT22;5201;48.776;9.128;2024-03-02T05:49:26;6.30;99.90
10312;DHT22;5201;48.776;9.128;2024-03-02T05:51:51;6.20;99.90
10312;DHT22;5201;48.776;9.128;2024-03-02T05:54:17;6.20;99.90
10312;DHT22;5201;48.776;9.128;2024-03-02T05:56:42;6.20;99.90
10312;DHT22;5201;48.776;9.128;2024-03-02T05:59:08;6.10;99.90
10312;DHT22;5201;48.776;9.128;2024-03-02T06:01:45;6.10;99.90
10312;DHT22;5201;48.776;9.128;2024-03-02T06:04:12;6.10;99.90
10312;DHT22;5201;48.776;9.128;2024-03-02T06:06:38;6.00;99.90
10312;DHT22;5201;48.776;9.128;2024-03-02T06:09:05;6.00;99.90
10312;DHT22;5201;48.776;9.128;2024-03-02T06:11:33;6.10;99.90
10312;DHT22;5201;48.776;9.128;2024-03-02T06:13:59;6.10;99.90
10312;DHT22;5201;48.776;9.128;2024-03-02T06:16:24;6.10;99.90
10312;DHT22;5201;48.776;9.128;2024-03-02T06:18:50;6.10;99.90
10312;DHT22;5201;48.776;9.128;2024-03-02T06:21:16;6.10;99.90
10312;DHT22;5201;48.776;9.128;2024-03-02T06:23:43;6.20;99.90
10312;DHT22;5201;48.776;9.128;2024-03-02T06:26:09;6.30;99.90
10312;DHT22;5201;48.776;9.128;2024-03-02T06:28:34;6.50;99.90
10312;DHT22;5201;48.776;9.128;2024-03-02T06:31:01;6.60;99.90
10312;DHT22;5201;48.776;9.128;2024-03-02T06:33:27;7.00;99.90
10312;DHT22;5201;48.776;9.128;2024-03-02T06:35:54;6.40;99.90
10312;DHT22;5201;48.776;9.128;2024-03-02T06:38:19;6.30;99.90
10312;DHT22;5201;48.776;9.128;2024-03-02T06:40:45;6.30;99.90
10312;DHT22;5201;48.776;9.128;2024-03-02T06:43:11;6.20;99.90
10312;DHT22;5201;48.776;9.128;2024-03-02T06:45:36;6.10;99.90
10312;DHT22;5201;48.776;9.128;2024-03-02T06:48:02;6.20;99.90
10312;DHT22;5201;48.776;9.128;2024-03-02T06:50:28;6.20;99.90
10312;DHT22;5201;48.776;9.128;2024-03-02T06:52:54;6.20;99.90
10312;DHT22;5201;48.776;9.128;2024-03-02T06:55:21;6.20;99.90
10312;DHT22;5201;48.776;9.128;2024-03-02T06:57:47;6.40;99.90
10312;DHT22;5201;48.776;9.128;2024-03-02T07:00:13;6.40;99.90
10312;DHT22;5201;48.776;9.128;2024-03-02T07:02:39;6.40;99.90
10312;DHT22;5201;48.776;9.128;2024-03-02T07:05:07;6.50;99.90
10312;DHT22;5201;48.776;9.128;2024-03-02T07:07:34;6.50;99.90
10312;DHT22;5201;48.776;9.128;2024-03-02T07:10:00;6.60;99.90
10312;DHT22;5201;48.776;9.128;2024-03-02T07:12:26;6.70;99.90
10312;DHT22;5201;48.776;9.128;2024-03-02T07:14:52;7.10;99.90
10312;DHT22;5201;48.776;9.128;2024-03-02T07:17:30;7.30;99.90
10312;DHT22;5201;48.776;9.128;2024-03-02T07:19:57;7.80;99.90
10312;DHT22;5201;48.776;9.128;2024-03-02T07:22:23;8.00;99.90
10312;DHT22;5201;48.776;9.128;2024-03-02T07:24:49;8.30;99.90
10312;DHT22;5201;48.776;9.128;2024-03-02T07:27:15;8.40;99.90
10312;DHT22;5201;48.776;9.128;2024-03-02T07:29:41;8.30;99.90
10312;DHT22;5201;48.776;9.128;2024-03-02T07:32:08;8.20;99.90
10312;DHT22;5201;48.776;9.128;2024-03-02T07:34:34;8.50;99.90
10312;DHT22;5201;48.776;9.128;2024-03-02T07:36:59;8.20;99.90
10312;DHT22;5201;48.776;9.128;2024-03-02T07:39:25;8.20;99.90
10312;DHT22;5201;48.776;9.128;2024-03-02T07:41:51;8.10;99.90
10312;DHT22;5201;48.776;9.128;2024-03-02T07:44:17;8.00;99.90
10312;DHT22;5201;48.776;9.128;2024-03-02T07:46:45;8.10;99.90
10312;DHT22;5201;48.776;9.128;2024-03-02T07:49:20;7.90;99.90
10312;DHT22;5201;48.776;9.128;2024-03-02T07:51:46;7.80;99.90
10312;DHT22;5201;48.776;9.128;2024-03-02T07:54:11;8.30;99.90
10312;DHT22;5201;48.776;9.128;2024-03-02T07:56:37;7.80;99.90
10312;DHT22;5201;48.776;9.128;2024-03-02T07:59:03;8.00;99.90
10312;DHT22;5201;48.776;9.128;2024-03-02T08:01:33;7.50;99.90
10312;DHT22;5201;48.776;9.128;2024-03-02T08:04:01;7.50;99.90
10312;DHT22;5201;48.776;9.128;2024-03-02T08:06:27;7.60;99.90
10312;DHT22;5201;48.776;9.128;2024-03-02T08:08:54;7.50;99.90
10312;DHT22;5201;48.776;9.128;2024-03-02T08:11:20;7.60;99.90
10312;DHT22;5201;48.776;9.128;2024-03-02T08:13:46;7.60;99.90
10312;DHT22;5201;48.776;9.128;2024-03-02T08:16:11;7.50;99.90
10312;DHT22;5201;48.776;9.128;2024-03-02T08:18:37;7.60;99.90
10312;DHT22;5201;48.776;9.128;2024-03-02T08:21:03;7.60;99.90
10312;DHT22;5201;48.776;9.128;2024-03-02T08:23:29;7.80;99.90
10312;DHT22;5201;48.776;9.128;2024-03-02T08:25:55;7.90;99.90
10312;DHT22;5201;48.776;9.128;2024-03-02T08:28:21;8.00;99.90
10312;DHT22;5201;48.776;9.128;2024-03-02T08:30:47;9.60;99.90
10312;DHT22;5201;48.776;9.128;2024-03-02T08:33:12;8.50;99.90
10312;DHT22;5201;48.776;9.128;2024-03-02T08:35:38;8.60;99.90
10312;DHT22;5201;48.776;9.128;2024-03-02T08:38:04;9.40;99.90
10312;DHT22;5201;48.776;9.128;2024-03-02T08:40:29;7.70;99.90
10312;DHT22;5201;48.776;9.128;2024-03-02T08:42:55;9.60;99.90
10312;DHT22;5201;48.776;9.128;2024-03-02T08:45:21;9.70;99.90
10312;DHT22;5201;48.776;9.128;2024-03-02T08:47:47;9.90;99.90
10312;DHT22;5201;48.776;9.128;2024-03-02T08:50:13;10.20;99.90
10312;DHT22;5201;48.776;9.128;2024-03-02T08:52:38;10.60;99.90
10312;DHT22;5201;48.776;9.128;2024-03-02T08:55:04;10.90;99.90
10312;DHT22;5201;48.776;9.128;2024-03-02T08:57:31;11.10;99.90
10312;DHT22;5201;48.776;9.128;2024-03-02T08:59:56;11.40;99.90
10312;DHT22;5201;48.776;9.128;2024-03-02T09:02:22;11.20;99.90
10312;DHT22;5201;48.776;9.128;2024-03-02T09:04:49;11.30;99.90
10312;DHT22;5201;48.776;9.128;2024-03-02T09:07:15;11.60;99.90
10312;DHT22;5201;48.776;9.128;2024-03-02T09:09:40;11.90;99.90
10312;DHT22;5201;48.776;9.128;2024-03-02T09:12:07;12.10;99.90
10312;DHT22;5201;48.776;9.128;2024-03-02T09:14:33;11.70;99.90
10312;DHT22;5201;48.776;9.128;2024-03-02T09:16:59;11.90;99.90
10312;DHT22;5201;48.776;9.128;2024-03-02T09:19:24;11.70;99.90
10312;DHT22;5201;48.776;9.128;2024-03-02T09:21:50;11.90;99.90
10312;DHT22;5201;48.776;9.128;2024-03-02T09:24:16;12.00;99.90
10312;DHT22;5201;48.776;9.128;2024-03-02T09:26:41;12.00;99.90
10312;DHT22;5201;48.776;9.128;2024-03-02T09:29:07;12.00;99.90
10312;DHT22;5201;48.776;9.128;2024-03-02T09:31:32;12.00;99.90
10312;DHT22;5201;48.776;9.128;2024-03-02T09:33:58;12.10;99.90
10312;DHT22;5201;48.776;9.128;2024-03-02T09:36:24;12.20;99.90
10312;DHT22;5201;48.776;9.128;2024-03-02T09:38:49;12.40;99.90
10312;DHT22;5201;48.776;9.128;2024-03-02T09:41:15;12.70;99.90
10312;DHT22;5201;48.776;9.128;2024-03-02T09:43:41;13.00;99.90
10312;DHT22;5201;48.776;9.128;2024-03-02T09:46:09;13.30;99.90
10312;DHT22;5201;48.776;9.128;2024-03-02T09:48:35;13.80;99.90
10312;DHT22;5201;48.776;9.128;2024-03-02T09:51:01;14.30;99.90
10312;DHT22;5201;48.776;9.128;2024-03-02T09:53:33;14.60;99.90
10312;DHT22;5201;48.776;9.128;2024-03-02T09:56:02;14.60;99.90
10312;DHT22;5201;48.776;9.128;2024-03-02T09:58:27;14.50;99.90
10312;DHT22;5201;48.776;9.128;2024-03-02T10:00:53;14.40;99.90
10312;DHT22;5201;48.776;9.128;2024-03-02T10:03:19;14.70;99.90
10312;DHT22;5201;48.776;9.128;2024-03-02T10:05:46;14.90;99.90
10312;DHT22;5201;48.776;9.128;2024-03-02T10:08:12;14.90;99.90
10312;DHT22;5201;48.776;9.128;2024-03-02T10:10:39;14.80;99.90
10312;DHT22;5201;48.776;9.128;2024-03-02T10:13:13;14.60;99.90
10312;DHT22;5201;48.776;9.128;2024-03-02T10:15:40;14.50;99.90
10312;DHT22;5201;48.776;9.128;2024-03-02T10:18:12;14.20;99.90
10312;DHT22;5201;48.776;9.128;2024-03-02T10:20:39;14.20;99.90
10312;DHT22;5201;48.776;9.128;2024-03-02T10:23:15;14.30;99.90
10312;DHT22;5201;48.776;9.128;2024-03-02T10:25:42;14.70;99.90
10312;DHT22;5201;48.776;9.128;2024-03-02T10:28:08;15.40;99.90
10312;DHT22;5201;48.776;9.128;2024-03-02T10:30:35;15.60;99.90
10312;DHT22;5201;48.776;9.128;2024-03-02T10:33:05;15.60;99.90
10312;DHT22;5201;48.776;9.128;2024-03-02T10:35:32;15.50;99.90
10312;DHT22;5201;48.776;9.128;2024-03-02T10:38:04;15.50;99.90
10312;DHT22;5201;48.776;9.128;2024-03-02T10:40:30;15.30;99.90
10312;DHT22;5201;48.776;9.128;2024-03-02T10:42:56;15.60;99.90
10312;DHT22;5201;48.776;9.128;2024-03-02T10:45:21;15.60;99.90
10312;DHT22;5201;48.776;9.128;2024-03-02T10:47:49;15.60;99.90
10312;DHT22;5201;48.776;9.128;2024-03-02T10:50:15;15.80;99.90
10312;DHT22;5201;48.776;9.128;2024-03-02T10:52:40;16.00;99.90
10312;DHT22;5201;48.776;9.128;2024-03-02T10:55:08;16.00;99.90
10312;DHT22;5201;48.776;9.128;2024-03-02T10:57:45;15.80;99.90
10312;DHT22;5201;48.776;9.128;2024-03-02T11:00:15;16.40;99.90
10312;DHT22;5201;48.776;9.128;2024-03-02T11:02:52;16.60;99.90
10312;DHT22;5201;48.776;9.128;2024-03-02T11:05:31;16.40;99.90
10312;DHT22;5201;48.776;9.128;2024-03-02T11:08:22;16.50;99.90
10312;DHT22;5201;48.776;9.128;2024-03-02T11:10:56;16.80;99.90
10312;DHT22;5201;48.776;9.128;2024-03-02T11:13:33;16.80;99.90
10312;DHT22;5201;48.776;9.128;2024-03-02T11:16:06;16.60;99.90
10312;DHT22;5201;48.776;9.128;2024-03-02T11:18:33;16.50;99.90
10312;DHT22;5201;48.776;9.128;2024-03-02T11:21:00;16.50;99.90
10312;DHT22;5201;48.776;9.128;2024-03-02T11:23:34;16.20;99.90
10312;DHT22;5201;48.776;9.128;2024-03-02T11:26:19;15.70;99.90
10312;DHT22;5201;48.776;9.128;2024-03-02T11:28:45;15.60;99.90
10312;DHT22;5201;48.776;9.128;2024-03-02T11:31:11;15.40;99.90
10312;DHT22;5201;48.776;9.128;2024-03-02T11:33:37;15.50;99.90
10312;DHT22;5201;48.776;9.128;2024-03-02T11:36:02;15.70;99.90
10312;DHT22;5201;48.776;9.128;2024-03-02T11:38:31;15.70;99.90
10312;DHT22;5201;48.776;9.128;2024-03-02T11:40:58;15.60;99.90
10312;DHT22;5201;48.776;9.128;2024-03-02T11:43:26;15.70;99.90
10312;DHT22;5201;48.776;9.128;2024-03-02T11:46:05;15.70;99.90
10312;DHT22;5201;48.776;9.128;2024-03-02T11:48:32;15.90;99.90
10312;DHT22;5201;48.776;9.128;2024-03-02T11:51:00;16.10;99.90
10312;DHT22;5201;48.776;9.128;2024-03-02T11:53:27;15.80;99.50
10312;DHT22;5201;48.776;9.128;2024-03-02T11:55:58;15.60;99.90
10312;DHT22;5201;48.776;9.128;2024-03-02T11:58:24;15.50;99.90
10312;DHT22;5201;48.776;9.128;2024-03-02T12:00:55;15.60;99.90
10312;DHT22;5201;48.776;9.128;2024-03-02T12:03:22;15.60;99.90
10312;DHT22;5201;48.776;9.128;2024-03-02T12:05:49;15.80;99.90
10312;DHT22;5201;48.776;9.128;2024-03-02T12:08:15;16.00;99.90
10312;DHT22;5201;48.776;9.128;2024-03-02T12:10:41;15.60;99.90
10312;DHT22;5201;48.776;9.128;2024-03-02T12:13:07;16.00;99.80
10312;DHT22;5201;48.776;9.128;2024-03-02T12:15:37;15.80;99.90
10312;DHT22;5201;48.776;9.128;2024-03-02T12:18:03;15.90;99.80
10312;DHT22;5201;48.776;9.128;2024-03-02T12:20:30;15.90;99.80
10312;DHT22;5201;48.776;9.128;2024-03-02T12:22:59;16.00;99.70
10312;DHT22;5201;48.776;9.128;2024-03-02T12:25:25;16.00;98.90
10312;DHT22;5201;48.776;9.128;2024-03-02T12:27:56;15.90;98.80
10312;DHT22;5201;48.776;9.128;2024-03-02T12:30:23;15.70;99.70
10312;DHT22;5201;48.776;9.128;2024-03-02T12:32:49;15.80;99.90
10312;DHT22;5201;48.776;9.128;2024-03-02T12:35:15;15.80;99.60
10312;DHT22;5201;48.776;9.128;2024-03-02T12:37:48;15.70;99.60
10312;DHT22;5201;48.776;9.128;2024-03-02T12:40:15;15.80;99.30
10312;DHT22;5201;48.776;9.128;2024-03-02T12:42:43;15.90;99.80
10312;DHT22;5201;48.776;9.128;2024-03-02T12:45:10;16.10;99.90
10312;DHT22;5201;48.776;9.128;2024-03-02T12:47:36;16.20;99.90
10312;DHT22;5201;48.776;9.128;2024-03-02T12:50:03;16.10;99.60
10312;DHT22;5201;48.776;9.128;2024-03-02T12:52:30;15.90;99.40
10312;DHT22;5201;48.776;9.128;2024-03-02T12:54:58;15.60;99.70
10312;DHT22;5201;48.776;9.128;2024-03-02T12:57:32;15.80;99.90
10312;DHT22;5201;48.776;9.128;2024-03-02T13:00:03;15.90;99.90
10312;DHT22;5201;48.776;9.128;2024-03-02T13:02:36;15.90;99.90
10312;DHT22;5201;48.776;9.128;2024-03-02T13:05:02;16.00;99.70
10312;DHT22;5201;48.776;9.128;2024-03-02T13:07:29;15.90;99.80
10312;DHT22;5201;48.776;9.128;2024-03-02T13:09:55;15.80;99.60
10312;DHT22;5201;48.776;9.128;2024-03-02T13:12:22;15.90;99.50
10312;DHT22;5201;48.776;9.128;2024-03-02T13:14:52;15.90;99.90
10312;DHT22;5201;48.776;9.128;2024-03-02T13:17:18;15.90;99.70
10312;DHT22;5201;48.776;9.128;2024-03-02T13:19:57;15.60;99.90
10312;DHT22;5201;48.776;9.128;2024-03-02T13:22:24;15.30;99.90
10312;DHT22;5201;48.776;9.128;2024-03-02T13:24:50;15.20;99.90
10312;DHT22;5201;48.776;9.128;2024-03-02T13:27:16;15.60;99.90
10312;DHT22;5201;48.776;9.128;2024-03-02T13:29:45;15.50;99.90
10312;DHT22;5201;48.776;9.128;2024-03-02T13:32:11;15.60;99.90
10312;DHT22;5201;48.776;9.128;2024-03-02T13:34:37;15.60;99.90
10312;DHT22;5201;48.776;9.128;2024-03-02T13:37:03;15.70;99.80
10312;DHT22;5201;48.776;9.128;2024-03-02T13:39:30;15.50;99.90
10312;DHT22;5201;48.776;9.128;2024-03-02T13:41:58;15.40;99.80
10312;DHT22;5201;48.776;9.128;2024-03-02T13:44:30;15.50;99.90
10312;DHT22;5201;48.776;9.128;2024-03-02T13:46:55;15.50;99.50
10312;DHT22;5201;48.776;9.128;2024-03-02T13:49:21;15.40;99.90
10312;DHT22;5201;48.776;9.128;2024-03-02T13:51:48;15.50;99.90
10312;DHT22;5201;48.776;9.128;2024-03-02T13:54:14;15.40;99.70
10312;DHT22;5201;48.776;9.128;2024-03-02T13:56:39;15.30;99.90
10312;DHT22;5201;48.776;9.128;2024-03-02T13:59:06;15.30;99.80
10312;DHT22;5201;48.776;9.128;2024-03-02T14:01:32;15.30;99.70
10312;DHT22;5201;48.776;9.128;2024-03-02T14:03:58;15.40;99.90
10312;DHT22;5201;48.776;9.128;2024-03-02T14:06:24;15.60;99.60
10312;DHT22;5201;48.776;9.128;2024-03-02T14:08:52;15.50;99.30
10312;DHT22;5201;48.776;9.128;2024-03-02T14:11:18;15.50;99.50
10312;DHT22;5201;48.776;9.128;2024-03-02T14:13:44;15.70;99.40
10312;DHT22;5201;48.776;9.128;2024-03-02T14:16:15;15.60;99.20
10312;DHT22;5201;48.776;9.128;2024-03-02T14:18:41;15.50;99.40
10312;DHT22;5201;48.776;9.128;2024-03-02T14:21:08;15.60;99.30
10312;DHT22;5201;48.776;9.128;2024-03-02T14:23:33;15.70;99.00
10312;DHT22;5201;48.776;9.128;2024-03-02T14:25:59;15.50;99.30
10312;DHT22;5201;48.776;9.128;2024-03-02T14:28:25;15.40;98.90
10312;DHT22;5201;48.776;9.128;2024-03-02T14:30:51;15.40;98.60
10312;DHT22;5201;48.776;9.128;2024-03-02T14:33:16;15.40;98.60
10312;DHT22;5201;48.776;9.128;2024-03-02T14:35:42;15.30;98.50
10312;DHT22;5201;48.776;9.128;2024-03-02T14:38:08;15.30;98.10
10312;DHT22;5201;48.776;9.128;2024-03-02T14:40:33;15.20;98.20
10312;DHT22;5201;48.776;9.128;2024-03-02T14:42:59;15.20;98.70
10312;DHT22;5201;48.776;9.128;2024-03-02T14:45:24;15.70;98.80
10312;DHT22;5201;48.776;9.128;2024-03-02T14:47:51;15.50;98.80
10312;DHT22;5201;48.776;9.128;2024-03-02T14:50:17;15.50;98.40
10312;DHT22;5201;48.776;9.128;2024-03-02T14:52:44;15.30;98.60
10312;DHT22;5201;48.776;9.128;2024-03-02T14:55:11;15.30;98.70
10312;DHT22;5201;48.776;9.128;2024-03-02T14:57:36;15.30;98.60
10312;DHT22;5201;48.776;9.128;2024-03-02T15:00:02;15.20;98.20
10312;DHT22;5201;48.776;9.128;2024-03-02T15:02:28;15.30;98.00
10312;DHT22;5201;48.776;9.128;2024-03-02T15:04:54;15.40;97.60
10312;DHT22;5201;48.776;9.128;2024-03-02T15:07:20;15.50;97.00
10312;DHT22;5201;48.776;9.128;2024-03-02T15:09:46;15.40;97.30
10312;DHT22;5201;48.776;9.128;2024-03-02T15:12:11;15.30;97.30
10312;DHT22;5201;48.776;9.128;2024-03-02T15:14:40;15.40;96.90
10312;DHT22;5201;48.776;9.128;2024-03-02T15:17:14;15.20;96.70
10312;DHT22;5201;48.776;9.128;2024-03-02T15:19:44;15.20;96.90
10312;DHT22;5201;48.776;9.128;2024-03-02T15:22:10;15.30;96.90
10312;DHT22;5201;48.776;9.128;2024-03-02T15:24:36;15.30;96.50
10312;DHT22;5201;48.776;9.128;2024-03-02T15:27:02;15.20;96.50
10312;DHT22;5201;48.776;9.128;2024-03-02T15:29:33;15.10;96.20
10312;DHT22;5201;48.776;9.128;2024-03-02T15:31:59;15.10;96.30
10312;DHT22;5201;48.776;9.128;2024-03-02T15:34:25;15.00;96.40
10312;DHT22;5201;48.776;9.128;2024-03-02T15:36:51;14.90;96.70
10312;DHT22;5201;48.776;9.128;2024-03-02T15:39:16;14.90;96.70
10312;DHT22;5201;48.776;9.128;2024-03-02T15:41:46;14.80;96.80
10312;DHT22;5201;48.776;9.128;2024-03-02T15:44:12;14.70;96.60
10312;DHT22;5201;48.776;9.128;2024-03-02T15:46:37;14.80;96.60
10312;DHT22;5201;48.776;9.128;2024-03-02T15:49:03;14.70;96.70
10312;DHT22;5201;48.776;9.128;2024-03-02T15:51:31;14.80;96.60
10312;DHT22;5201;48.776;9.128;2024-03-02T15:53:58;14.70;96.20
10312;DHT22;5201;48.776;9.128;2024-03-02T15:56:24;14.70;96.20